createdAt,value
2023-03-18T00:00:57.271Z,9.4
2023-03-18T00:02:00.921Z,9.4
2023-03-18T00:03:04.381Z,9.4
2023-03-18T00:04:08.447Z,9.3
2023-03-18T00:05:11.581Z,9.3
2023-03-18T00:06:15.048Z,9.3
2023-03-18T00:07:18.852Z,9.4
2023-03-18T00:08:22.028Z,9.4
2023-03-18T00:09:25.832Z,9.4
2023-03-18T00:10:28.740Z,9.4
2023-03-18T00:11:31.462Z,9.4
2023-03-18T00:12:34.632Z,9.4
2023-03-18T00:13:37.498Z,9.4
2023-03-18T00:14:40.802Z,9.4
2023-03-18T00:15:44.265Z,9.4
2023-03-18T00:16:47.363Z,9.4
2023-03-18T00:17:50.805Z,9.4
2023-03-18T00:18:54.186Z,9.3
2023-03-18T00:19:57.312Z,9.3
2023-03-18T00:21:00.104Z,9.3
2023-03-18T00:22:03.516Z,9.3
2023-03-18T00:23:07.007Z,9.3
2023-03-18T00:24:10.640Z,9.3
2023-03-18T00:25:14.497Z,9.2
2023-03-18T00:26:17.485Z,9.2
2023-03-18T00:27:20.580Z,9.2
2023-03-18T00:28:23.680Z,9.2
2023-03-18T00:29:26.751Z,9.1
2023-03-18T00:30:30.120Z,9.1
2023-03-18T00:31:34.374Z,9.1
2023-03-18T00:32:37.657Z,9.1
2023-03-18T00:33:40.962Z,9.2
2023-03-18T00:34:43.701Z,9.2
2023-03-18T00:35:47.328Z,9.2
2023-03-18T00:36:49.624Z,9.2
2023-03-18T00:37:52.713Z,9.2
2023-03-18T00:38:55.711Z,9.2
2023-03-18T00:39:58.965Z,9.2
2023-03-18T00:41:02.872Z,9.2
2023-03-18T00:42:06.060Z,9.2
2023-03-18T00:43:09.296Z,9.2
2023-03-18T00:44:12.587Z,9.2
2023-03-18T00:45:16.015Z,9.2
2023-03-18T00:46:20.230Z,9.2
2023-03-18T00:47:23.696Z,9.2
2023-03-18T00:48:27.209Z,9.1
2023-03-18T00:49:29.937Z,9.1
2023-03-18T00:50:34.098Z,9.2
2023-03-18T00:51:37.743Z,9.2
2023-03-18T00:52:40.623Z,9.2
2023-03-18T00:53:44.263Z,9.2
2023-03-18T00:54:47.566Z,9.2
2023-03-18T00:55:51.456Z,9.2
2023-03-18T00:56:55.249Z,9.2
2023-03-18T00:57:58.361Z,9.2
2023-03-18T00:59:01.752Z,9.1
2023-03-18T01:00:04.895Z,9.1
2023-03-18T01:01:08.307Z,9.1
2023-03-18T01:02:11.464Z,9.1
2023-03-18T01:03:14.748Z,9.1
2023-03-18T01:04:18.386Z,9.1
2023-03-18T01:05:21.826Z,9.2
2023-03-18T01:06:24.955Z,9.1
2023-03-18T01:07:27.673Z,9.1
2023-03-18T01:08:30.826Z,9.1
2023-03-18T01:09:33.293Z,9.1
2023-03-18T01:10:36.488Z,9.1
2023-03-18T01:11:39.847Z,9.1
2023-03-18T01:12:43.400Z,9.1
2023-03-18T01:13:46.500Z,9.1
2023-03-18T01:14:49.237Z,9.1
2023-03-18T01:15:52.041Z,9.2
2023-03-18T01:16:55.387Z,9.1
2023-03-18T01:17:58.243Z,9.1
2023-03-18T01:19:00.810Z,9.2
2023-03-18T01:20:04.226Z,9.2
2023-03-18T01:21:07.448Z,9.2
2023-03-18T01:22:10.461Z,9.2
2023-03-18T01:23:13.629Z,9.2
2023-03-18T01:24:16.727Z,9.2
2023-03-18T01:25:20.185Z,9.2
2023-03-18T01:26:23.964Z,9.2
2023-03-18T01:27:27.305Z,9.2
2023-03-18T01:28:31.528Z,9.2
2023-03-18T01:29:34.873Z,9.2
2023-03-18T01:30:38.667Z,9.2
2023-03-18T01:31:41.957Z,9.2
2023-03-18T01:32:45.350Z,9.3
2023-03-18T01:33:48.788Z,9.3
2023-03-18T01:34:52.242Z,9.3
2023-03-18T01:35:55.824Z,9.3
2023-03-18T01:36:59.007Z,9.3
2023-03-18T01:38:01.728Z,9.3
2023-03-18T01:39:05.015Z,9.3
2023-03-18T01:40:07.523Z,9.3
2023-03-18T01:41:10.391Z,9.3
2023-03-18T01:42:13.971Z,9.3
2023-03-18T01:43:17.739Z,9.3
2023-03-18T01:44:21.875Z,9.3
2023-03-18T01:45:25.397Z,9.3
2023-03-18T01:46:28.799Z,9.4
2023-03-18T01:47:31.239Z,9.4
2023-03-18T01:48:33.656Z,9.4
2023-03-18T01:49:37.320Z,9.4
2023-03-18T01:50:40.262Z,9.4
2023-03-18T01:51:43.954Z,9.4
2023-03-18T01:52:46.412Z,9.4
2023-03-18T01:53:49.008Z,9.4
2023-03-18T01:54:51.538Z,9.4
2023-03-18T01:55:54.686Z,9.4
2023-03-18T01:56:57.500Z,9.4
2023-03-18T01:58:00.934Z,9.4
2023-03-18T01:59:04.928Z,9.5
2023-03-18T02:00:08.848Z,9.5
2023-03-18T02:01:11.972Z,9.5
2023-03-18T02:02:14.842Z,9.5
2023-03-18T02:03:17.666Z,9.5
2023-03-18T02:04:21.027Z,9.5
2023-03-18T02:06:27.682Z,9.6
2023-03-18T02:07:30.662Z,9.6
2023-03-18T02:08:33.111Z,9.6
2023-03-18T02:09:36.906Z,9.7
2023-03-18T02:10:40.642Z,9.7
2023-03-18T02:11:43.645Z,9.7
2023-03-18T02:12:46.664Z,9.7
2023-03-18T02:13:49.692Z,9.7
2023-03-18T02:14:52.787Z,9.7
2023-03-18T02:15:56.538Z,9.8
2023-03-18T02:16:59.303Z,9.7
2023-03-18T02:18:03.089Z,9.8
2023-03-18T02:19:05.870Z,9.7
2023-03-18T02:20:08.653Z,9.7
2023-03-18T02:21:11.963Z,9.7
2023-03-18T02:22:16.005Z,9.7
2023-03-18T02:23:19.417Z,9.7
2023-03-18T02:24:21.868Z,9.7
2023-03-18T02:25:24.872Z,9.7
2023-03-18T02:26:27.682Z,9.6
2023-03-18T02:27:31.370Z,9.6
2023-03-18T02:28:34.765Z,9.5
2023-03-18T02:29:38.239Z,9.5
2023-03-18T02:30:41.599Z,9.4
2023-03-18T02:31:45.606Z,9.4
2023-03-18T02:32:49.499Z,9.3
2023-03-18T02:33:52.933Z,9.2
2023-03-18T02:34:55.633Z,9.2
2023-03-18T02:35:59.150Z,9.1
2023-03-18T02:37:02.262Z,9.1
2023-03-18T02:38:06.270Z,9
2023-03-18T02:39:09.697Z,9
2023-03-18T02:40:12.899Z,8.9
2023-03-18T02:41:16.389Z,8.9
2023-03-18T02:42:19.099Z,8.9
2023-03-18T02:43:21.998Z,8.8
2023-03-18T02:44:24.738Z,8.8
2023-03-18T02:45:28.122Z,8.8
2023-03-18T02:46:32.463Z,8.7
2023-03-18T02:47:36.304Z,8.7
2023-03-18T02:48:39.937Z,8.7
2023-03-18T02:49:42.720Z,8.7
2023-03-18T02:50:45.976Z,8.6
2023-03-18T02:51:49.234Z,8.6
2023-03-18T02:52:52.066Z,8.6
2023-03-18T02:53:55.065Z,8.6
2023-03-18T02:54:57.215Z,8.6
2023-03-18T02:56:00.586Z,8.6
2023-03-18T02:57:03.590Z,8.5
2023-03-18T02:58:06.704Z,8.4
2023-03-18T02:59:10.097Z,8.4
2023-03-18T03:00:12.828Z,8.4
2023-03-18T03:01:15.580Z,8.4
2023-03-18T03:02:18.441Z,8.4
2023-03-18T03:03:23.462Z,8.4
2023-03-18T03:04:26.851Z,8.4
2023-03-18T03:05:29.676Z,8.4
2023-03-18T03:06:32.505Z,8.4
2023-03-18T03:07:35.697Z,8.4
2023-03-18T03:08:38.684Z,8.4
2023-03-18T03:09:41.586Z,8.4
2023-03-18T03:10:45.001Z,8.4
2023-03-18T03:11:48.162Z,8.4
2023-03-18T03:12:51.540Z,8.4
2023-03-18T03:13:54.283Z,8.4
2023-03-18T03:14:57.702Z,8.4
2023-03-18T03:16:01.476Z,8.4
2023-03-18T03:17:04.128Z,8.4
2023-03-18T03:18:07.862Z,8.4
2023-03-18T03:19:11.775Z,8.4
2023-03-18T03:20:14.554Z,8.4
2023-03-18T03:21:17.578Z,8.4
2023-03-18T03:22:20.754Z,8.4
2023-03-18T03:23:23.492Z,8.4
2023-03-18T03:24:27.263Z,8.4
2023-03-18T03:25:30.687Z,8.4
2023-03-18T03:26:34.460Z,8.4
2023-03-18T03:27:37.399Z,8.4
2023-03-18T03:28:40.468Z,8.4
2023-03-18T03:29:43.469Z,8.3
2023-03-18T03:30:46.333Z,8.3
2023-03-18T03:31:49.433Z,8.3
2023-03-18T03:32:53.045Z,8.3
2023-03-18T03:33:56.466Z,8.3
2023-03-18T03:35:00.667Z,8.4
2023-03-18T03:36:04.748Z,8.4
2023-03-18T03:37:07.156Z,8.4
2023-03-18T03:38:10.031Z,8.4
2023-03-18T03:39:12.553Z,8.4
2023-03-18T03:40:15.680Z,8.4
2023-03-18T03:41:18.778Z,8.4
2023-03-18T03:42:21.497Z,8.4
2023-03-18T03:43:24.207Z,8.4
2023-03-18T03:44:27.415Z,8.2
2023-03-18T03:45:30.669Z,8.2
2023-03-18T03:46:33.751Z,8.2
2023-03-18T03:47:35.927Z,8.2
2023-03-18T03:48:38.677Z,8.1
2023-03-18T03:49:42.504Z,8.1
2023-03-18T03:50:46.509Z,8.1
2023-03-18T03:51:49.983Z,8.1
2023-03-18T03:52:53.156Z,8.1
2023-03-18T03:53:56.132Z,8.1
2023-03-18T03:54:59.200Z,8.1
2023-03-18T03:56:02.100Z,8.1
2023-03-18T03:57:05.820Z,8.1
2023-03-18T03:58:09.305Z,8.2
2023-03-18T03:59:12.109Z,8.1
2023-03-18T04:00:14.910Z,8.2
2023-03-18T04:01:18.352Z,8.2
2023-03-18T04:02:21.364Z,8.2
2023-03-18T04:03:24.485Z,8.2
2023-03-18T04:04:27.362Z,8.3
2023-03-18T04:05:31.596Z,8.3
2023-03-18T04:06:35.397Z,8.3
2023-03-18T04:07:37.278Z,8.3
2023-03-18T04:08:40.075Z,8.3
2023-03-18T04:09:42.805Z,8.3
2023-03-18T04:10:46.189Z,8.4
2023-03-18T04:11:49.267Z,8.4
2023-03-18T04:12:52.084Z,8.5
2023-03-18T04:13:55.072Z,8.5
2023-03-18T04:14:58.090Z,8.5
2023-03-18T04:16:01.269Z,8.5
2023-03-18T04:17:03.890Z,8.6
2023-03-18T04:18:08.230Z,8.6
2023-03-18T04:19:11.292Z,8.6
2023-03-18T04:20:14.705Z,8.5
2023-03-18T04:21:18.456Z,8.5
2023-03-18T04:22:22.104Z,8.5
2023-03-18T04:23:24.827Z,8.4
2023-03-18T04:24:28.026Z,8.4
2023-03-18T04:25:31.695Z,8.4
2023-03-18T04:26:34.899Z,8.4
2023-03-18T04:27:38.036Z,8.3
2023-03-18T04:28:40.868Z,8.4
2023-03-18T04:29:43.729Z,8.3
2023-03-18T04:30:46.803Z,8.4
2023-03-18T04:31:50.397Z,8.3
2023-03-18T04:32:54.448Z,8.3
2023-03-18T04:33:57.467Z,8.3
2023-03-18T04:35:00.534Z,8.2
2023-03-18T04:36:03.639Z,8.1
2023-03-18T04:37:07.103Z,8.1
2023-03-18T04:38:10.876Z,8.2
2023-03-18T04:39:13.917Z,8.2
2023-03-18T04:40:17.188Z,8.1
2023-03-18T04:41:19.756Z,8.1
2023-03-18T04:42:22.827Z,8.2
2023-03-18T04:43:25.843Z,8.1
2023-03-18T04:44:28.940Z,8.2
2023-03-18T04:45:32.312Z,8.2
2023-03-18T04:46:35.903Z,8.2
2023-03-18T04:47:38.453Z,8.2
2023-03-18T04:48:40.934Z,8.3
2023-03-18T04:49:43.934Z,8.3
2023-03-18T04:50:46.783Z,8.3
2023-03-18T04:51:50.541Z,8.3
2023-03-18T04:52:54.556Z,8.3
2023-03-18T04:53:59.012Z,8.4
2023-03-18T04:55:03.031Z,8.4
2023-03-18T04:56:06.116Z,8.4
2023-03-18T04:57:08.744Z,8.4
2023-03-18T04:58:11.827Z,8.4
2023-03-18T04:59:14.653Z,8.4
2023-03-18T05:00:17.500Z,8.4
2023-03-18T05:01:21.008Z,8.4
2023-03-18T05:02:25.121Z,8.3
2023-03-18T05:03:28.778Z,8.3
2023-03-18T05:04:31.628Z,8.3
2023-03-18T05:05:39.822Z,8.2
2023-03-18T05:06:42.916Z,8.2
2023-03-18T05:07:45.987Z,8.2
2023-03-18T05:08:49.439Z,8.3
2023-03-18T05:09:53.304Z,8.2
2023-03-18T05:10:56.816Z,8.2
2023-03-18T05:12:00.174Z,8.2
2023-03-18T05:13:03.501Z,8.2
2023-03-18T05:14:06.291Z,8.2
2023-03-18T05:15:12.621Z,8.3
2023-03-18T05:16:16.381Z,8.3
2023-03-18T05:17:19.841Z,8.3
2023-03-18T05:18:23.139Z,8.3
2023-03-18T05:19:26.314Z,8.3
2023-03-18T05:20:29.404Z,8.3
2023-03-18T05:21:33.282Z,8.3
2023-03-18T05:22:36.765Z,8.3
2023-03-18T05:23:39.423Z,8.3
2023-03-18T05:24:43.452Z,8.3
2023-03-18T05:25:47.363Z,8.3
2023-03-18T05:26:50.558Z,8.3
2023-03-18T05:27:53.298Z,8.4
2023-03-18T05:28:56.038Z,8.3
2023-03-18T05:29:58.948Z,8.3
2023-03-18T05:31:01.677Z,8.3
2023-03-18T05:32:04.887Z,8.3
2023-03-18T05:33:09.121Z,8.3
2023-03-18T05:34:12.582Z,8.3
2023-03-18T05:35:15.905Z,8.3
2023-03-18T05:36:18.963Z,8.3
2023-03-18T05:37:22.975Z,8.3
2023-03-18T05:38:25.713Z,8.3
2023-03-18T05:39:28.758Z,8.2
2023-03-18T05:40:32.109Z,8.3
2023-03-18T05:41:36.300Z,8.3
2023-03-18T05:42:57.703Z,8.3
2023-03-18T05:44:00.527Z,8.3
2023-03-18T05:45:03.316Z,8.4
2023-03-18T05:46:06.668Z,8.4
2023-03-18T05:47:10.265Z,8.4
2023-03-18T05:48:13.344Z,8.4
2023-03-18T05:49:15.783Z,8.4
2023-03-18T05:50:18.495Z,8.4
2023-03-18T05:51:21.011Z,8.4
2023-03-18T05:52:24.089Z,8.4
2023-03-18T05:53:27.101Z,8.5
2023-03-18T05:54:29.539Z,8.5
2023-03-18T05:55:33.769Z,8.4
2023-03-18T05:56:37.352Z,8.5
2023-03-18T05:57:41.160Z,8.5
2023-03-18T05:58:44.803Z,8.5
2023-03-18T05:59:48.240Z,8.6
2023-03-18T06:00:51.643Z,8.6
2023-03-18T06:01:55.521Z,8.6
2023-03-18T06:02:58.913Z,8.6
2023-03-18T06:04:01.893Z,8.6
2023-03-18T06:05:05.633Z,8.7
2023-03-18T06:06:08.452Z,8.7
2023-03-18T06:07:12.235Z,8.7
2023-03-18T06:08:15.236Z,8.7
2023-03-18T06:09:18.585Z,8.7
2023-03-18T06:10:21.067Z,8.7
2023-03-18T06:11:25.272Z,8.8
2023-03-18T06:12:29.336Z,8.8
2023-03-18T06:13:34.254Z,8.8
2023-03-18T06:14:37.891Z,8.8
2023-03-18T06:15:40.976Z,8.9
2023-03-18T06:16:45.226Z,8.9
2023-03-18T06:17:48.464Z,8.9
2023-03-18T06:18:52.127Z,8.9
2023-03-18T06:19:55.077Z,8.9
2023-03-18T06:20:58.360Z,8.9
2023-03-18T06:22:01.336Z,8.9
2023-03-18T06:23:04.078Z,8.9
2023-03-18T06:24:07.287Z,8.9
2023-03-18T06:25:11.423Z,8.9
2023-03-18T06:26:13.680Z,8.9
2023-03-18T06:27:17.151Z,8.9
2023-03-18T06:28:20.586Z,8.9
2023-03-18T06:29:24.441Z,8.9
2023-03-18T06:30:27.892Z,9
2023-03-18T06:31:30.868Z,8.9
2023-03-18T06:32:34.724Z,8.9
2023-03-18T06:33:37.548Z,9
2023-03-18T06:34:41.243Z,9
2023-03-18T06:35:44.164Z,9
2023-03-18T06:36:47.330Z,9
2023-03-18T06:37:50.406Z,9
2023-03-18T06:38:54.112Z,9
2023-03-18T06:39:56.973Z,9
2023-03-18T06:41:00.966Z,9
2023-03-18T06:42:03.647Z,9.1
2023-03-18T06:43:06.716Z,9
2023-03-18T06:44:09.866Z,9
2023-03-18T06:45:13.851Z,9
2023-03-18T06:46:16.840Z,9.1
2023-03-18T06:47:19.686Z,9.1
2023-03-18T06:48:22.404Z,9.1
2023-03-18T06:49:25.418Z,9.1
2023-03-18T06:50:28.376Z,9.1
2023-03-18T06:51:31.169Z,9.1
2023-03-18T06:52:34.836Z,9.2
2023-03-18T06:53:38.609Z,9.2
2023-03-18T06:54:42.066Z,9.2
2023-03-18T06:55:45.418Z,9.2
2023-03-18T06:56:48.488Z,9.2
2023-03-18T06:57:52.210Z,9.3
2023-03-18T06:58:55.103Z,9.3
2023-03-18T06:59:58.474Z,9.3
2023-03-18T07:01:02.459Z,9.3
2023-03-18T07:02:04.779Z,9.3
2023-03-18T07:03:06.952Z,9.3
2023-03-18T07:04:10.030Z,9.3
2023-03-18T07:05:12.556Z,9.4
2023-03-18T07:06:14.995Z,9.4
2023-03-18T07:07:18.134Z,9.3
2023-03-18T07:08:21.876Z,9.4
2023-03-18T07:09:25.614Z,9.3
2023-03-18T07:10:28.662Z,9.4
2023-03-18T07:11:31.745Z,9.4
2023-03-18T07:12:34.360Z,9.4
2023-03-18T07:13:37.446Z,9.5
2023-03-18T07:14:40.280Z,9.5
2023-03-18T07:15:44.212Z,9.5
2023-03-18T07:16:48.541Z,9.5
2023-03-18T07:17:51.949Z,9.5
2023-03-18T07:18:54.730Z,9.5
2023-03-18T07:19:58.015Z,9.6
2023-03-18T07:21:00.754Z,9.6
2023-03-18T07:22:04.160Z,9.6
2023-03-18T07:23:07.074Z,9.6
2023-03-18T07:24:09.879Z,9.6
2023-03-18T07:25:13.665Z,9.6
2023-03-18T07:26:16.747Z,9.6
2023-03-18T07:27:19.238Z,9.6
2023-03-18T07:28:22.257Z,9.6
2023-03-18T07:29:25.423Z,9.7
2023-03-18T07:30:28.439Z,9.7
2023-03-18T07:31:32.375Z,9.7
2023-03-18T07:32:36.154Z,9.7
2023-03-18T07:33:39.326Z,9.7
2023-03-18T07:34:42.692Z,9.8
2023-03-18T07:35:46.448Z,9.8
2023-03-18T07:36:48.910Z,9.8
2023-03-18T07:37:52.314Z,9.9
2023-03-18T07:38:54.821Z,9.9
2023-03-18T07:39:58.819Z,10
2023-03-18T07:41:01.579Z,10
2023-03-18T07:42:04.862Z,10.1
2023-03-18T07:43:08.061Z,10.1
2023-03-18T07:44:11.124Z,10.2
2023-03-18T07:45:14.000Z,10.2
2023-03-18T07:46:17.436Z,10.3
2023-03-18T07:47:20.581Z,10.3
2023-03-18T07:48:24.410Z,10.3
2023-03-18T07:49:27.529Z,10.4
2023-03-18T07:50:31.019Z,10.4
2023-03-18T07:51:34.156Z,10.4
2023-03-18T07:52:36.968Z,10.5
2023-03-18T07:53:40.064Z,10.5
2023-03-18T07:54:43.508Z,10.5
2023-03-18T07:55:46.660Z,10.5
2023-03-18T07:56:49.798Z,10.6
2023-03-18T07:57:52.888Z,10.6
2023-03-18T07:58:56.416Z,10.7
2023-03-18T07:59:59.466Z,10.7
2023-03-18T08:01:02.217Z,10.8
2023-03-18T08:02:05.555Z,10.9
2023-03-18T08:03:09.339Z,10.9
2023-03-18T08:04:13.939Z,11
2023-03-18T08:05:17.859Z,11
2023-03-18T08:06:22.751Z,11.1
2023-03-18T08:07:26.398Z,11.1
2023-03-18T08:08:28.984Z,11.2
2023-03-18T08:09:32.005Z,11.2
2023-03-18T08:10:35.092Z,11.3
2023-03-18T08:11:38.480Z,11.3
2023-03-18T08:12:55.502Z,11.4
2023-03-18T08:13:59.477Z,11.5
2023-03-18T08:15:03.560Z,11.5
2023-03-18T08:16:07.102Z,11.6
2023-03-18T08:17:10.528Z,11.6
2023-03-18T08:18:14.004Z,11.6
2023-03-18T08:19:17.844Z,11.7
2023-03-18T08:20:21.506Z,11.8
2023-03-18T08:21:24.255Z,11.8
2023-03-18T08:22:27.606Z,11.9
2023-03-18T08:23:30.802Z,11.9
2023-03-18T08:24:33.970Z,12
2023-03-18T08:25:37.159Z,11.9
2023-03-18T08:26:40.313Z,12
2023-03-18T08:27:43.351Z,12.1
2023-03-18T08:28:46.588Z,12.1
2023-03-18T08:29:50.238Z,12.1
2023-03-18T08:30:53.306Z,12.1
2023-03-18T08:31:56.654Z,12.1
2023-03-18T08:32:59.798Z,12.1
2023-03-18T08:34:03.601Z,12.2
2023-03-18T08:35:07.394Z,12.1
2023-03-18T08:36:10.389Z,12.1
2023-03-18T08:37:13.569Z,12.1
2023-03-18T08:38:16.956Z,12
2023-03-18T08:39:18.834Z,12
2023-03-18T08:40:22.274Z,12
2023-03-18T08:41:25.354Z,12
2023-03-18T08:42:28.378Z,12.1
2023-03-18T08:43:31.166Z,12.1
2023-03-18T08:44:34.580Z,12.1
2023-03-18T08:45:38.123Z,12.2
2023-03-18T08:46:41.336Z,12.2
2023-03-18T08:47:44.426Z,12.2
2023-03-18T08:48:47.638Z,12.2
2023-03-18T08:49:53.235Z,12.2
2023-03-18T08:50:57.086Z,12.3
2023-03-18T08:52:00.575Z,12.4
2023-03-18T08:53:03.674Z,12.5
2023-03-18T08:54:06.734Z,12.5
2023-03-18T08:55:10.965Z,12.6
2023-03-18T08:56:13.930Z,12.7
2023-03-18T08:57:17.630Z,12.7
2023-03-18T08:58:21.377Z,12.8
2023-03-18T08:59:24.660Z,12.9
2023-03-18T09:00:28.006Z,12.9
2023-03-18T09:01:31.444Z,13.1
2023-03-18T09:02:33.967Z,13.1
2023-03-18T09:03:37.853Z,13.2
2023-03-18T09:04:41.648Z,13.1
2023-03-18T09:05:44.750Z,13
2023-03-18T09:06:48.734Z,13
2023-03-18T09:07:52.370Z,13
2023-03-18T09:08:56.162Z,12.9
2023-03-18T09:09:58.607Z,13
2023-03-18T09:11:02.090Z,13.1
2023-03-18T09:12:05.795Z,13.1
2023-03-18T09:13:08.608Z,13.3
2023-03-18T09:14:11.711Z,13.5
2023-03-18T09:15:14.810Z,13.6
2023-03-18T09:16:19.071Z,13.7
2023-03-18T09:18:12.839Z,13.7
2023-03-18T09:19:16.478Z,13.9
2023-03-18T09:20:19.420Z,14
2023-03-18T09:21:22.536Z,14
2023-03-18T09:22:26.320Z,14
2023-03-18T09:23:29.400Z,14.1
2023-03-18T09:24:32.514Z,14.1
2023-03-18T09:25:36.315Z,14.1
2023-03-18T09:26:39.046Z,13.9
2023-03-18T09:27:41.857Z,14
2023-03-18T09:28:44.646Z,13.9
2023-03-18T09:29:47.940Z,13.9
2023-03-18T09:30:50.535Z,14
2023-03-18T09:31:53.608Z,14
2023-03-18T09:32:57.039Z,14.1
2023-03-18T09:34:00.553Z,14.2
2023-03-18T09:35:04.233Z,14.3
2023-03-18T09:36:07.488Z,14.4
2023-03-18T09:37:11.261Z,14.4
2023-03-18T09:38:15.103Z,14.4
2023-03-18T09:39:18.375Z,14.2
2023-03-18T09:40:21.451Z,14.1
2023-03-18T09:41:25.245Z,14
2023-03-18T09:42:28.250Z,13.9
2023-03-18T09:43:31.596Z,13.8
2023-03-18T09:44:35.050Z,13.7
2023-03-18T09:45:37.616Z,13.5
2023-03-18T09:46:41.078Z,13.5
2023-03-18T09:47:45.111Z,13.4
2023-03-18T09:48:48.182Z,13.4
2023-03-18T09:49:50.979Z,13.4
2023-03-18T09:50:54.364Z,13.5
2023-03-18T09:51:57.383Z,13.5
2023-03-18T09:53:00.845Z,13.4
2023-03-18T09:54:04.757Z,13.5
2023-03-18T09:55:07.868Z,13.5
2023-03-18T09:56:10.633Z,13.5
2023-03-18T09:57:13.911Z,13.5
2023-03-18T09:58:16.806Z,13.6
2023-03-18T09:59:19.741Z,13.6
2023-03-18T10:00:22.585Z,13.6
2023-03-18T10:01:26.291Z,13.6
2023-03-18T10:02:30.142Z,13.6
2023-03-18T10:03:32.881Z,13.6
2023-03-18T10:04:36.102Z,13.6
2023-03-18T10:05:39.106Z,13.7
2023-03-18T10:06:42.178Z,13.7
2023-03-18T10:07:44.986Z,13.7
2023-03-18T10:08:48.112Z,13.7
2023-03-18T10:09:51.939Z,13.7
2023-03-18T10:10:55.290Z,13.7
2023-03-18T10:11:58.304Z,13.7
2023-03-18T10:13:01.379Z,13.7
2023-03-18T10:14:04.827Z,13.8
2023-03-18T10:15:07.853Z,13.8
2023-03-18T10:16:11.797Z,13.9
2023-03-18T10:17:14.680Z,13.9
2023-03-18T10:18:18.050Z,14
2023-03-18T10:19:21.519Z,14.1
2023-03-18T10:20:24.448Z,14.1
2023-03-18T10:21:27.903Z,14.1
2023-03-18T10:22:31.058Z,14.1
2023-03-18T10:23:34.737Z,14.2
2023-03-18T10:24:38.384Z,14.2
2023-03-18T10:25:42.230Z,14.3
2023-03-18T10:26:45.205Z,14.5
2023-03-18T10:27:48.758Z,14.7
2023-03-18T10:28:51.574Z,14.9
2023-03-18T10:29:55.046Z,15.1
2023-03-18T10:30:58.326Z,15.4
2023-03-18T10:32:00.635Z,15.6
2023-03-18T10:33:04.285Z,15.8
2023-03-18T10:34:07.586Z,16
2023-03-18T10:35:10.658Z,16.3
2023-03-18T10:36:14.172Z,16.5
2023-03-18T10:37:17.636Z,16.6
2023-03-18T10:38:20.934Z,16.9
2023-03-18T10:39:24.182Z,17
2023-03-18T10:40:27.633Z,17.1
2023-03-18T10:41:31.582Z,16.9
2023-03-18T10:42:34.693Z,16.8
2023-03-18T10:43:37.693Z,16.7
2023-03-18T10:44:41.337Z,16.5
2023-03-18T10:45:44.841Z,16.5
2023-03-18T10:46:48.110Z,16.4
2023-03-18T10:47:51.676Z,16.2
2023-03-18T10:48:54.497Z,15.9
2023-03-18T10:49:57.873Z,15.8
2023-03-18T10:51:01.234Z,15.8
2023-03-18T10:52:04.385Z,15.7
2023-03-18T10:53:07.395Z,15.7
2023-03-18T10:54:10.476Z,15.6
2023-03-18T10:55:13.394Z,15.5
2023-03-18T10:56:16.579Z,15.5
2023-03-18T10:57:20.266Z,15.4
2023-03-18T10:58:23.721Z,15.3
2023-03-18T10:59:26.737Z,15.4
2023-03-18T11:00:29.887Z,15.4
2023-03-18T11:01:34.242Z,15.3
2023-03-18T11:02:37.875Z,15.3
2023-03-18T11:03:41.099Z,15.2
2023-03-18T11:04:44.511Z,15.2
2023-03-18T11:05:47.524Z,15.1
2023-03-18T11:06:50.860Z,15
2023-03-18T11:07:53.853Z,15
2023-03-18T11:08:57.118Z,14.9
2023-03-18T11:10:00.577Z,14.9
2023-03-18T11:11:04.676Z,14.9
2023-03-18T11:12:08.318Z,14.9
2023-03-18T11:13:12.249Z,14.9
2023-03-18T11:14:15.620Z,14.9
2023-03-18T11:15:18.445Z,14.9
2023-03-18T11:16:21.766Z,14.9
2023-03-18T11:17:24.651Z,14.8
2023-03-18T11:18:28.097Z,14.9
2023-03-18T11:19:31.514Z,14.9
2023-03-18T11:20:36.676Z,14.9
2023-03-18T11:21:40.040Z,14.9
2023-03-18T11:22:43.499Z,14.9
2023-03-18T11:23:47.125Z,14.8
2023-03-18T11:24:49.904Z,14.8
2023-03-18T11:25:53.695Z,14.7
2023-03-18T11:26:56.946Z,14.6
2023-03-18T11:28:00.591Z,14.6
2023-03-18T11:29:04.264Z,14.6
2023-03-18T11:30:07.106Z,14.5
2023-03-18T11:31:10.199Z,14.4
2023-03-18T11:32:13.223Z,14.4
2023-03-18T11:33:16.861Z,14.4
2023-03-18T11:34:19.346Z,14.3
2023-03-18T11:35:22.695Z,14.3
2023-03-18T11:36:25.810Z,14.2
2023-03-18T11:37:29.164Z,14.3
2023-03-18T11:38:32.663Z,14.3
2023-03-18T11:39:36.389Z,14.3
2023-03-18T11:40:40.037Z,14.3
2023-03-18T11:41:43.115Z,14.4
2023-03-18T11:42:45.824Z,14.4
2023-03-18T11:43:48.880Z,14.3
2023-03-18T11:44:52.423Z,14.3
2023-03-18T11:45:55.741Z,14.3
2023-03-18T11:46:59.503Z,14.3
2023-03-18T11:48:02.690Z,14.3
2023-03-18T11:49:06.073Z,14.2
2023-03-18T11:50:08.589Z,14.2
2023-03-18T11:51:12.230Z,14.2
2023-03-18T11:52:15.065Z,14.2
2023-03-18T11:53:18.513Z,14.2
2023-03-18T11:54:21.999Z,14.3
2023-03-18T11:55:25.701Z,14.3
2023-03-18T11:56:29.058Z,14.3
2023-03-18T11:57:32.269Z,14.4
2023-03-18T11:58:34.815Z,14.5
2023-03-18T11:59:37.883Z,14.5
2023-03-18T12:00:41.757Z,14.5
2023-03-18T12:01:44.915Z,14.6
2023-03-18T12:02:47.759Z,14.7
2023-03-18T12:03:50.636Z,14.7
2023-03-18T12:04:54.746Z,14.8
2023-03-18T12:05:58.225Z,14.9
2023-03-18T12:07:01.942Z,15
2023-03-18T12:08:05.236Z,15.2
2023-03-18T12:09:08.587Z,15.5
2023-03-18T12:10:11.697Z,15.8
2023-03-18T12:11:15.078Z,15.9
2023-03-18T12:12:17.786Z,16.1
2023-03-18T12:13:20.545Z,16.5
2023-03-18T12:14:24.380Z,16.7
2023-03-18T12:15:28.118Z,16.9
2023-03-18T12:16:32.195Z,17.1
2023-03-18T12:17:35.466Z,17.3
2023-03-18T12:18:38.246Z,17.4
2023-03-18T12:19:41.126Z,17.6
2023-03-18T12:20:44.565Z,17.8
2023-03-18T12:21:47.360Z,17.9
2023-03-18T12:22:50.147Z,18
2023-03-18T12:23:52.850Z,17.9
2023-03-18T12:24:55.668Z,17.7
2023-03-18T12:25:59.092Z,17.6
2023-03-18T12:27:02.080Z,17.5
2023-03-18T12:28:04.798Z,17.4
2023-03-18T12:29:08.206Z,17.2
2023-03-18T12:30:10.675Z,17.2
2023-03-18T12:31:13.822Z,17.1
2023-03-18T12:32:17.789Z,17.1
2023-03-18T12:33:20.861Z,17
2023-03-18T12:34:23.863Z,17
2023-03-18T12:35:27.759Z,16.9
2023-03-18T12:36:30.097Z,16.9
2023-03-18T12:37:33.442Z,16.8
2023-03-18T12:38:37.172Z,16.5
2023-03-18T12:39:39.962Z,16.4
2023-03-18T12:40:42.755Z,16.4
2023-03-18T12:41:45.856Z,16.3
2023-03-18T12:42:48.585Z,16.2
2023-03-18T12:43:52.233Z,16.2
2023-03-18T12:44:55.638Z,16.2
2023-03-18T12:45:58.806Z,16.2
2023-03-18T12:47:02.152Z,16.2
2023-03-18T12:48:06.347Z,16.2
2023-03-18T12:49:08.500Z,16.3
2023-03-18T12:50:11.875Z,16.3
2023-03-18T12:51:14.884Z,16.3
2023-03-18T12:52:18.258Z,16.3
2023-03-18T12:53:21.392Z,16.4
2023-03-18T12:54:24.856Z,16.5
2023-03-18T12:55:28.197Z,16.4
2023-03-18T12:56:31.661Z,16.4
2023-03-18T12:57:35.341Z,16.4
2023-03-18T12:58:38.394Z,16.3
2023-03-18T12:59:41.888Z,16.2
2023-03-18T13:00:44.689Z,16.1
2023-03-18T13:01:48.408Z,16.2
2023-03-18T13:02:52.057Z,16.4
2023-03-18T13:03:56.286Z,16.4
2023-03-18T13:04:59.293Z,16.4
2023-03-18T13:06:02.388Z,16.4
2023-03-18T13:07:05.762Z,16.6
2023-03-18T13:08:09.457Z,16.8
2023-03-18T13:09:12.902Z,16.9
2023-03-18T13:10:15.861Z,16.9
2023-03-18T13:11:18.927Z,17
2023-03-18T13:12:22.386Z,16.9
2023-03-18T13:13:25.796Z,16.8
2023-03-18T13:14:28.796Z,16.8
2023-03-18T13:15:34.781Z,16.8
2023-03-18T13:16:38.328Z,16.8
2023-03-18T13:17:41.872Z,16.8
2023-03-18T13:18:45.495Z,16.9
2023-03-18T13:19:49.449Z,16.8
2023-03-18T13:20:53.169Z,16.9
2023-03-18T13:21:56.697Z,16.9
2023-03-18T13:23:00.118Z,16.9
2023-03-18T13:24:03.504Z,16.9
2023-03-18T13:25:06.647Z,16.9
2023-03-18T13:26:09.448Z,16.9
2023-03-18T13:27:12.572Z,17.1
2023-03-18T13:28:16.038Z,17.3
2023-03-18T13:29:18.846Z,17.6
2023-03-18T13:30:22.105Z,17.9
2023-03-18T13:31:25.547Z,18.1
2023-03-18T13:32:28.828Z,18.4
2023-03-18T13:33:32.268Z,18.6
2023-03-18T13:34:35.347Z,18.8
2023-03-18T13:35:39.170Z,18.9
2023-03-18T13:36:42.187Z,19.1
2023-03-18T13:37:45.179Z,19.2
2023-03-18T13:38:48.338Z,19.1
2023-03-18T13:39:50.871Z,18.7
2023-03-18T13:40:54.537Z,18.6
2023-03-18T13:41:56.646Z,18.6
2023-03-18T13:42:59.446Z,18.7
2023-03-18T13:44:01.968Z,18.8
2023-03-18T13:45:04.968Z,18.9
2023-03-18T13:46:07.776Z,19.1
2023-03-18T13:47:10.946Z,19.2
2023-03-18T13:48:13.761Z,19.1
2023-03-18T13:49:17.171Z,19.3
2023-03-18T13:50:20.992Z,19.6
2023-03-18T13:51:25.239Z,19.8
2023-03-18T13:52:28.687Z,20
2023-03-18T13:53:32.064Z,20.1
2023-03-18T13:54:35.499Z,20.3
2023-03-18T13:55:38.854Z,20.3
2023-03-18T13:56:41.667Z,20.1
2023-03-18T13:57:44.111Z,20.1
2023-03-18T13:58:47.265Z,20.1
2023-03-18T13:59:50.394Z,20.1
2023-03-18T14:00:53.384Z,20.2
2023-03-18T14:01:57.028Z,19.9
2023-03-18T14:02:59.868Z,20
2023-03-18T14:04:02.781Z,20.1
2023-03-18T14:05:06.150Z,20.2
2023-03-18T14:06:09.622Z,20.3
2023-03-18T14:07:13.460Z,20.3
2023-03-18T14:08:16.549Z,20.1
2023-03-18T14:09:19.284Z,20.1
2023-03-18T14:10:22.421Z,20.2
2023-03-18T14:11:24.850Z,20.3
2023-03-18T14:12:27.871Z,20.3
2023-03-18T14:13:31.520Z,20.4
2023-03-18T14:14:34.912Z,20.5
2023-03-18T14:15:38.256Z,20.5
2023-03-18T14:16:41.562Z,20.4
2023-03-18T14:17:44.855Z,20.5
2023-03-18T14:18:47.967Z,20.5
2023-03-18T14:19:51.989Z,20.2
2023-03-18T14:20:55.130Z,20.1
2023-03-18T14:21:58.103Z,20
2023-03-18T14:23:02.264Z,19.8
2023-03-18T14:24:09.173Z,19.6